»·PEaware :: N717TS KASE-KCOS

N717TS :: KASE-KCOS

FLIGHT INFORMATION

Flight Status: Arrived
Operator: Privately registered:
United States
More flights under this callsign
Pilot: Ty S. (2873)
Aircraft: MITSUBISHI MU-2 MARQUISE
(MU2)
More flights by this aircraft type
Origin: KASE Aspen-Pitkin Co/Sardy
United States
Destination: KCOS City Of Colorado Springs Mun
United States
More flights between these airports :: More routes between these airports
Route: +LINDZ9 DBL V108 BRK
File this flight plan on PilotEdge
Remarks:
Altitude:
(Current/Filed)
17,000ft
Speed:
(Current/Filed)
350kts
Departed: 30-Mar-20 04:58 PM
Arrived: 30-Mar-20 05:33 PM
Distance/Time
Traveled:
103nm/0:35
Distance/Time
To Go:
Arrived

Flight Plot

Page will automatically refresh every two minutes.

Flight plan parsing failed; only flown route is shown


Map Options




Map Legend


Flown Route
Filed Route
Departure Airport
Arrival Airport
Navaid (VOR, NDB)
Fix

Horizontal Profiles

Position Reports

Time Latitude Longitude Heading Altitude Ground
Speed
30-Mar-20 16:03 39.227389 -106.869111 249 7823ft 0kts
30-Mar-20 16:04 39.227389 -106.869111 249 7823ft 0kts
30-Mar-20 16:05 39.227389 -106.869111 249 7823ft 0kts
30-Mar-20 16:05 39.227389 -106.869111 249 7823ft 0kts
30-Mar-20 16:06 39.227389 -106.869111 249 7823ft 0kts
30-Mar-20 16:08 39.227389 -106.869111 249 7823ft 0kts
30-Mar-20 16:08 39.227389 -106.869111 249 7823ft 0kts
30-Mar-20 16:09 39.227389 -106.869111 249 7823ft 0kts
30-Mar-20 16:10 39.227389 -106.869111 249 7823ft 0kts
30-Mar-20 16:12 39.227389 -106.869111 249 7823ft 0kts
30-Mar-20 16:12 39.227389 -106.869111 249 7823ft 0kts
30-Mar-20 16:13 39.227389 -106.869111 249 7823ft 0kts
30-Mar-20 16:14 39.227389 -106.869111 249 7823ft 0kts
30-Mar-20 16:15 39.227389 -106.869111 249 7823ft 0kts
30-Mar-20 16:16 39.227389 -106.869111 249 7823ft 0kts
30-Mar-20 16:17 39.227389 -106.869111 249 7823ft 0kts
30-Mar-20 16:18 39.227389 -106.869111 249 7823ft 0kts
30-Mar-20 16:19 39.227389 -106.869111 249 7823ft 0kts
30-Mar-20 16:20 39.227389 -106.869111 249 7823ft 0kts
30-Mar-20 16:21 39.227389 -106.869111 249 7823ft 0kts
30-Mar-20 16:22 39.227389 -106.869111 249 7823ft 0kts
30-Mar-20 16:23 39.227389 -106.869111 249 7823ft 0kts
30-Mar-20 16:24 39.227389 -106.869111 249 7823ft 0kts
30-Mar-20 16:25 39.227389 -106.869111 249 7823ft 0kts
30-Mar-20 16:26 39.227389 -106.869111 249 7823ft 0kts
30-Mar-20 16:27 39.227389 -106.869111 249 7823ft 0kts
30-Mar-20 16:28 39.227389 -106.869111 249 7823ft 0kts
30-Mar-20 16:29 39.227389 -106.869111 249 7823ft 0kts
30-Mar-20 16:30 39.227389 -106.869111 249 7823ft 0kts
30-Mar-20 16:31 39.227389 -106.869111 249 7823ft 0kts
30-Mar-20 16:32 39.227389 -106.869111 249 7823ft 0kts
30-Mar-20 16:33 39.227388 -106.869111 247 7823ft 0kts
30-Mar-20 16:34 39.227388 -106.869111 247 7823ft 0kts
30-Mar-20 16:35 39.227388 -106.869111 247 7823ft 0kts
30-Mar-20 16:36 39.227388 -106.869111 247 7823ft 0kts
30-Mar-20 16:37 39.227388 -106.869111 247 7823ft 0kts
30-Mar-20 16:38 39.227388 -106.869111 247 7823ft 0kts
30-Mar-20 16:39 39.227388 -106.869111 247 7823ft 0kts
30-Mar-20 16:40 39.227388 -106.869111 247 7823ft 0kts
30-Mar-20 16:41 39.227388 -106.869111 247 7823ft 0kts
30-Mar-20 16:42 39.227388 -106.869111 247 7823ft 0kts
30-Mar-20 16:43 39.227388 -106.869111 247 7823ft 0kts
30-Mar-20 16:44 39.227388 -106.869111 248 7823ft 0kts
30-Mar-20 16:45 39.227366 -106.869193 251 7823ft 0kts
30-Mar-20 16:46 39.226421 -106.869020 159 7823ft 9kts
30-Mar-20 16:47 39.224457 -106.868067 159 7823ft 6kts
30-Mar-20 16:48 39.222246 -106.867009 159 7823ft 12kts
30-Mar-20 16:49 39.219296 -106.865597 159 7823ft 11kts
30-Mar-20 16:50 39.216388 -106.864211 160 7823ft 11kts
30-Mar-20 16:51 39.213455 -106.862834 159 7823ft 6kts
30-Mar-20 16:52 39.212664 -106.862464 166 7823ft 0kts
30-Mar-20 16:53 39.212664 -106.862464 166 7823ft 0kts
30-Mar-20 16:54 39.212437 -106.862578 241 7823ft 4kts
30-Mar-20 16:55 39.212314 -106.863000 254 7823ft 6kts
30-Mar-20 16:56 39.212395 -106.863485 333 7823ft 0kts
30-Mar-20 16:57 39.223195 -106.868570 340 7853ft 136kts
30-Mar-20 16:58 39.261525 -106.886770 309 9700ft 165kts
30-Mar-20 16:59 39.270828 -106.950324 282 11810ft 181kts
30-Mar-20 17:00 39.281064 -107.014091 320 13874ft 184kts
30-Mar-20 17:01 39.318733 -107.059005 303 15938ft 190kts
30-Mar-20 17:02 39.360252 -107.042545 80 17025ft 264kts
30-Mar-20 17:03 39.359735 -106.936030 93 17003ft 317kts
30-Mar-20 17:04 39.357875 -106.817465 88 17001ft 338kts
30-Mar-20 17:05 39.355923 -106.694157 88 17000ft 346kts
30-Mar-20 17:06 39.353968 -106.569542 92 16998ft 341kts
30-Mar-20 17:07 39.345591 -106.449234 105 16998ft 331kts
30-Mar-20 17:08 39.322102 -106.337675 106 16997ft 329kts
30-Mar-20 17:09 39.297638 -106.223416 104 17005ft 339kts
30-Mar-20 17:10 39.271986 -106.103735 104 17007ft 343kts
30-Mar-20 17:11 39.246482 -105.985780 104 17012ft 337kts
30-Mar-20 17:12 39.221055 -105.868709 104 17022ft 336kts
30-Mar-20 17:13 39.195575 -105.752028 104 17027ft 335kts
30-Mar-20 17:14 39.169817 -105.635929 110 17022ft 336kts
30-Mar-20 17:15 39.114190 -105.538580 127 17028ft 336kts
30-Mar-20 17:16 39.056745 -105.442846 127 17028ft 336kts
30-Mar-20 17:17 39.000410 -105.349084 128 17028ft 337kts
30-Mar-20 17:18 38.942200 -105.253066 128 16984ft 339kts
30-Mar-20 17:19 38.884480 -105.159047 128 16943ft 340kts
30-Mar-20 17:20 38.825172 -105.063420 127 16894ft 341kts
30-Mar-20 17:21 38.765924 -104.967463 127 16882ft 341kts
30-Mar-20 17:22 38.707706 -104.872507 127 15737ft 327kts
30-Mar-20 17:23 38.651154 -104.788122 156 14123ft 300kts
30-Mar-20 17:24 38.571689 -104.775763 179 12437ft 282kts
30-Mar-20 17:25 38.496213 -104.759390 135 10718ft 278kts
30-Mar-20 17:26 38.516106 -104.693755 350 9034ft 239kts
30-Mar-20 17:27 38.576897 -104.715923 358 7957ft 218kts
30-Mar-20 17:28 38.635493 -104.716221 358 7970ft 207kts
30-Mar-20 17:29 38.692586 -104.716215 0 7764ft 209kts
30-Mar-20 17:30 38.740682 -104.715587 357 7304ft 150kts
30-Mar-20 17:31 38.776740 -104.715595 359 6565ft 116kts
30-Mar-20 17:32 38.802997 -104.715921 359 6191ft 15kts
30-Mar-20 17:33 38.804790 -104.717332 357 6191ft 7kts
30-Mar-20 17:34 38.806220 -104.718673 268 6191ft 9kts
30-Mar-20 17:35 38.807627 -104.719990 322 6191ft 6kts
30-Mar-20 17:36 38.807834 -104.720076 60 6191ft 0kts
30-Mar-20 17:37 38.807834 -104.720076 60 6191ft 0kts
30-Mar-20 17:38 38.807834 -104.720076 60 6191ft 0kts
30-Mar-20 17:39 38.807834 -104.720076 60 6191ft 0kts
30-Mar-20 17:40 38.807834 -104.720076 60 6191ft 0kts
30-Mar-20 17:41 38.807834 -104.720076 60 6191ft 0kts
30-Mar-20 17:42 38.807834 -104.720076 60 6191ft 0kts
30-Mar-20 17:43 38.807834 -104.720076 60 6191ft 0kts
30-Mar-20 17:44 38.807834 -104.720076 60 6191ft 0kts
30-Mar-20 17:45 38.807834 -104.720076 60 6191ft 0kts
30-Mar-20 17:46 38.807834 -104.720076 60 6191ft 0kts

Navigation Log

Ident Type
Flight plan parsing failed, navigation log unavailable